Airfield :
LOGIN :

Register | Disclaimer

   EN    FR    IT 

 










Legend :    VFR   Marginal VFR   IFR   Intensive IFR   Very Intensive IFR
Visi :
Ceiling :
>= 8 km
>= 3000ft
5 to 8 km
1000 to 3000 ft
1500m to 5 km
500 to 1000 ft
800 to 1500m
200 to 500 ft
< 800m
< 200 ft
Symbols :   Thunderstorms  Fog  Heavy snow  Heavy precipitations  Wind > 20 kt
SIGMETs :     Misc.  Thunderstorms  Icing  Turbulence  Mountain Waves  Volcanic Ashes







- Airport Elevation : 580 ft
- Download approach charts


LFOA - Avord

CURRENT METAR :
  • 171530Z AUTO 03015KT 360V060 9999 FEW046 24/13 Q1019 TEMPO 03010G20KT

EXPIRED METARs :
  • 171500Z AUTO 04014KT 9999 FEW049 25/13 Q1019 NOSIG
  • 171430Z AUTO 03011KT 010V070 CAVOK 26/13 Q1019 NOSIG
  • 171400Z AUTO 03011KT CAVOK 26/13 Q1019 NOSIG
  • 171330Z AUTO 05010KT 360V070 CAVOK 26/13 Q1019 NOSIG
  • 171300Z AUTO 05009KT 350V090 9999 FEW048 26/13 Q1019 NOSIG

TAF TAF LFOA
Valid from the 17 at 15:00 until the 18 at 15:00 UTC


171400Z 1715/1815 04010KT CAVOK
TEMPO 1715/1722 03010G20KT
BECMG 1722/1802 05015G25KT
No reported NOTAMs for that airfield.



MET'MAP, your aeronautical weather chart ! - Copyright ORBIFLY December 2007 - Disclaimer

ORBIFLY MET'MAP TEAM :

Programming & Development : Alexandra Zaïnal
Concept & Development : Baudouin d'Aumeries
Co-Development & Prog : Marc-Olivier Méhu
Technical & hardware support : Manuel Goepfert

Contact : metmap@orbifly.com




SOURCES & CREDITS :

   NOAA